createdAt,value
2023-09-17T10:10:02.082Z,101053.75
2023-09-17T10:20:13.474Z,101041.00
2023-09-17T10:30:16.236Z,101026.09
2023-09-17T10:40:19.638Z,101038.44
2023-09-17T10:50:31.244Z,101030.00
2023-09-17T11:00:36.790Z,101030.06
2023-09-17T11:10:43.544Z,101032.03
2023-09-17T11:20:54.785Z,101025.44
2023-09-17T11:30:59.617Z,101046.66
2023-09-17T11:41:07.727Z,101044.47
2023-09-17T11:51:17.763Z,101042.25
2023-09-17T12:01:20.865Z,101035.25
2023-09-17T12:11:37.789Z,101053.69
2023-09-17T12:21:42.703Z,101051.63
2023-09-17T12:31:53.789Z,101035.66
2023-09-17T12:41:58.682Z,101023.34
2023-09-17T12:52:06.492Z,101020.88
2023-09-17T13:02:18.568Z,101015.50
2023-09-17T13:12:20.091Z,101008.78
2023-09-17T13:32:50.598Z,101003.56
2023-09-17T13:42:52.251Z,100998.41
2023-09-17T13:52:53.721Z,100983.66
2023-09-17T14:02:58.919Z,100983.19
2023-09-17T14:13:10.287Z,100973.88
2023-09-17T14:23:12.698Z,100966.81
2023-09-17T14:33:24.510Z,100964.81
2023-09-17T14:43:28.052Z,100955.00
2023-09-17T14:53:36.998Z,100941.63
2023-09-17T15:03:49.877Z,100942.47
2023-09-17T15:24:20.261Z,100938.03
2023-09-17T15:34:22.005Z,100940.75
2023-09-17T15:44:29.679Z,100934.72
2023-09-17T15:54:38.645Z,100922.56
2023-09-17T16:04:47.680Z,100923.41
2023-09-17T16:14:51.696Z,100922.72
2023-09-17T16:24:59.801Z,100921.69
2023-09-17T16:35:09.745Z,100906.88
2023-09-17T16:45:17.446Z,100909.63
2023-09-17T16:55:25.674Z,100897.19
2023-09-17T17:05:34.641Z,100870.84
2023-09-17T17:15:47.858Z,100859.31
2023-09-17T17:25:50.740Z,100838.28
2023-09-17T17:35:58.085Z,100823.41
2023-09-17T17:46:07.698Z,100831.41
2023-09-17T17:56:09.065Z,100827.06
2023-09-17T18:06:10.409Z,100814.91
2023-09-17T18:16:11.806Z,100788.47
2023-09-17T18:26:13.211Z,100784.63
2023-09-17T18:36:14.569Z,100789.81
2023-09-17T18:46:15.919Z,100775.03
2023-09-17T18:56:17.368Z,100770.78
2023-09-17T19:06:18.724Z,100789.69
2023-09-17T19:26:36.317Z,100750.81
2023-09-17T19:36:39.122Z,100729.13
2023-09-17T19:46:40.525Z,100732.88
2023-09-17T19:56:41.957Z,100749.09
2023-09-17T20:06:53.885Z,100730.50
2023-09-17T20:16:56.792Z,100742.88
2023-09-17T20:26:58.191Z,100737.06
2023-09-17T20:36:59.530Z,100725.44
2023-09-17T20:47:00.887Z,100714.53
2023-09-17T20:57:02.231Z,100712.22
2023-09-17T21:07:03.581Z,100697.44
2023-09-17T21:17:04.916Z,100696.38
2023-09-17T21:27:06.276Z,100663.22
2023-09-17T21:37:07.576Z,100651.88
2023-09-17T21:47:08.921Z,100631.53
2023-09-17T21:57:10.272Z,100627.19
2023-09-17T22:07:11.580Z,100599.94
2023-09-17T22:17:12.927Z,100597.19
2023-09-17T22:27:15.977Z,100582.28
2023-09-17T22:37:19.744Z,100569.31
2023-09-17T22:47:21.091Z,100550.56
2023-09-17T22:57:22.437Z,100536.84
2023-09-17T23:07:23.764Z,100509.63
2023-09-17T23:17:25.176Z,100481.63
2023-09-17T23:27:26.666Z,100471.06
2023-09-17T23:37:27.988Z,100442.88
2023-09-17T23:47:29.456Z,100429.03
2023-09-17T23:57:30.867Z,100398.09
